createdAt,value
2018-11-26T00:02:21.413Z,23.97
2018-11-26T00:07:25.197Z,23.77
2018-11-26T00:12:28.957Z,24.07
2018-11-26T00:17:32.746Z,23.17
2018-11-26T00:22:36.799Z,24.17
2018-11-26T00:27:40.623Z,24.20
2018-11-26T00:32:44.420Z,23.27
2018-11-26T00:37:48.198Z,24.20
2018-11-26T00:42:51.990Z,23.03
2018-11-26T00:47:55.764Z,22.70
2018-11-26T00:52:59.620Z,24.00
2018-11-26T00:58:03.416Z,23.33
2018-11-26T01:03:07.470Z,22.93
2018-11-26T01:08:11.917Z,24.07
2018-11-26T01:13:21.498Z,23.13
2018-11-26T01:18:25.289Z,22.60
2018-11-26T01:23:29.073Z,22.50
2018-11-26T01:28:32.843Z,23.03
2018-11-26T01:33:36.669Z,21.95
2018-11-26T01:38:40.463Z,23.07
2018-11-26T01:43:44.266Z,22.23
2018-11-26T01:48:48.053Z,23.37
2018-11-26T01:53:52.104Z,22.03
2018-11-26T01:58:55.931Z,21.50
2018-11-26T02:03:59.734Z,20.37
2018-11-26T02:09:04.158Z,21.53
2018-11-26T02:14:08.275Z,21.53
2018-11-26T02:19:12.067Z,20.83
2018-11-26T02:24:15.890Z,21.27
2018-11-26T02:29:19.685Z,20.07
2018-11-26T02:34:24.008Z,20.00
2018-11-26T02:39:27.811Z,21.30
2018-11-26T02:44:31.588Z,20.40
2018-11-26T02:49:35.353Z,20.47
2018-11-26T02:54:39.408Z,20.37
2018-11-26T02:59:43.256Z,20.00
2018-11-26T03:04:47.046Z,19.87
2018-11-26T03:09:51.048Z,19.52
2018-11-26T03:14:55.127Z,19.80
2018-11-26T03:19:59.126Z,18.80
2018-11-26T03:25:03.367Z,19.57
2018-11-26T03:30:24.930Z,20.47
2018-11-26T03:35:28.738Z,19.07
2018-11-26T03:40:32.559Z,19.40
2018-11-26T03:45:36.417Z,20.00
2018-11-26T03:50:40.472Z,20.07
2018-11-26T03:55:44.273Z,20.37
2018-11-26T04:00:52.406Z,21.30
2018-11-26T04:05:56.243Z,19.87
2018-11-26T04:11:00.095Z,21.50
2018-11-26T04:16:03.898Z,21.17
2018-11-26T04:21:07.778Z,19.83
2018-11-26T04:26:11.816Z,20.00
2018-11-26T04:31:15.652Z,20.87
2018-11-26T04:36:19.461Z,19.50
2018-11-26T04:41:23.317Z,19.83
2018-11-26T04:46:27.381Z,20.47
2018-11-26T04:51:31.192Z,20.80
2018-11-26T04:56:35.010Z,20.77
2018-11-26T05:01:38.942Z,20.83
2018-11-26T05:06:43.015Z,20.47
2018-11-26T05:11:46.878Z,20.97
2018-11-26T05:16:50.703Z,20.37
2018-11-26T05:21:54.567Z,20.83
2018-11-26T05:26:58.678Z,21.47
2018-11-26T05:32:02.495Z,23.23
2018-11-26T05:37:06.602Z,24.80
2018-11-26T05:42:10.458Z,24.77
2018-11-26T05:47:14.510Z,25.63
2018-11-26T05:52:18.414Z,26.50
2018-11-26T05:57:22.259Z,27.87
2018-11-26T06:02:26.309Z,25.80
2018-11-26T06:07:30.355Z,24.30
2018-11-26T06:12:34.186Z,24.00
2018-11-26T06:17:38.218Z,22.60
2018-11-26T06:22:45.804Z,24.07
2018-11-26T06:27:49.754Z,23.63
2018-11-26T06:32:53.622Z,25.37
2018-11-26T06:37:57.738Z,26.40
2018-11-26T06:43:01.538Z,23.73
2018-11-26T06:48:05.782Z,22.53
2018-11-26T06:53:09.866Z,24.17
2018-11-26T06:58:13.655Z,24.83
2018-11-26T07:03:17.671Z,25.47
2018-11-26T07:08:21.715Z,23.77
2018-11-26T07:13:25.511Z,24.70
2018-11-26T07:18:29.543Z,23.40
2018-11-26T07:23:35.234Z,23.57
2018-11-26T07:28:39.092Z,23.90
2018-11-26T07:33:42.938Z,23.33
2018-11-26T07:38:46.787Z,22.93
2018-11-26T07:43:50.602Z,21.43
2018-11-26T07:48:54.680Z,22.70
2018-11-26T07:53:58.582Z,22.20
2018-11-26T07:59:02.403Z,23.43
2018-11-26T08:04:06.270Z,23.40
2018-11-26T08:09:10.353Z,24.80
2018-11-26T08:14:14.418Z,24.43
2018-11-26T08:19:18.256Z,25.87
2018-11-26T08:24:22.096Z,24.93
2018-11-26T08:29:26.191Z,24.13
2018-11-26T08:34:30.278Z,23.03
2018-11-26T08:39:36.086Z,22.80
2018-11-26T08:44:41.035Z,23.00
2018-11-26T08:49:44.882Z,22.97
2018-11-26T08:54:48.742Z,21.95
2018-11-26T08:59:52.623Z,21.13
2018-11-26T09:05:04.530Z,20.57
2018-11-26T09:10:09.210Z,21.50
2018-11-26T09:15:13.037Z,22.30
2018-11-26T09:20:16.878Z,20.48
2018-11-26T09:25:20.941Z,21.10
2018-11-26T09:30:24.748Z,20.90
2018-11-26T09:35:29.493Z,21.03
2018-11-26T09:40:33.317Z,20.37
2018-11-26T09:45:40.531Z,20.20
2018-11-26T09:50:41.025Z,20.70
2018-11-26T09:55:44.859Z,20.17
2018-11-26T10:00:48.846Z,20.80
2018-11-26T10:05:52.674Z,19.90
2018-11-26T10:10:56.501Z,20.80
2018-11-26T10:16:00.539Z,19.23
2018-11-26T10:21:04.590Z,19.67
2018-11-26T10:26:08.423Z,20.77
2018-11-26T10:31:12.503Z,20.87
2018-11-26T10:36:16.320Z,20.77
2018-11-26T10:41:20.138Z,20.30
2018-11-26T10:46:24.194Z,20.72
2018-11-26T10:51:28.033Z,20.97
2018-11-26T10:56:32.201Z,20.43
2018-11-26T11:01:39.635Z,20.77
2018-11-26T11:06:43.459Z,21.43
2018-11-26T11:11:47.261Z,21.20
2018-11-26T11:16:51.082Z,20.50
2018-11-26T11:21:55.158Z,20.90
2018-11-26T11:26:59.070Z,19.33
2018-11-26T11:32:02.890Z,19.07
2018-11-26T11:37:07.279Z,20.93
2018-11-26T11:42:11.124Z,19.10
2018-11-26T11:47:14.939Z,18.83
2018-11-26T11:52:18.787Z,18.87
2018-11-26T11:57:22.883Z,19.33
2018-11-26T12:02:26.696Z,18.63
2018-11-26T12:07:30.499Z,18.47
2018-11-26T12:12:34.544Z,19.43
2018-11-26T12:17:38.404Z,18.10
2018-11-26T12:22:42.480Z,19.10
2018-11-26T12:27:46.524Z,18.97
2018-11-26T12:32:50.392Z,19.60
2018-11-26T12:37:54.350Z,19.50
2018-11-26T12:43:00.497Z,19.40
2018-11-26T12:48:04.592Z,18.62
2018-11-26T12:53:08.461Z,18.63
2018-11-26T12:58:12.519Z,18.93
2018-11-26T13:03:16.332Z,19.07
2018-11-26T13:08:20.131Z,19.27
2018-11-26T13:13:24.236Z,19.53
2018-11-26T13:18:28.159Z,19.07
2018-11-26T13:23:32.048Z,19.15
2018-11-26T13:28:35.856Z,19.33
2018-11-26T13:33:39.683Z,17.90
2018-11-26T13:38:43.491Z,19.00
2018-11-26T13:43:47.315Z,19.20
2018-11-26T13:48:51.119Z,18.07
2018-11-26T13:53:54.919Z,18.17
2018-11-26T13:58:58.708Z,18.70
2018-11-26T14:04:02.724Z,18.17
2018-11-26T14:09:09.812Z,18.73
2018-11-26T14:14:13.864Z,17.67
2018-11-26T14:19:17.729Z,17.40
2018-11-26T14:24:21.532Z,17.33
2018-11-26T14:29:25.328Z,17.60
2018-11-26T14:34:29.154Z,17.33
2018-11-26T14:39:33.243Z,17.03
2018-11-26T14:44:37.139Z,17.10
2018-11-26T14:49:40.966Z,17.00
2018-11-26T14:54:44.783Z,16.50
2018-11-26T14:59:48.839Z,16.67
2018-11-26T15:04:52.670Z,16.53
2018-11-26T15:09:56.484Z,18.10
2018-11-26T15:15:00.299Z,17.37
2018-11-26T15:20:06.247Z,18.27
2018-11-26T15:25:12.462Z,17.83
2018-11-26T15:30:18.300Z,18.60
2018-11-26T15:35:23.284Z,18.53
2018-11-26T15:40:27.127Z,19.07
2018-11-26T15:45:31.200Z,18.97
2018-11-26T15:50:35.276Z,18.77
2018-11-26T15:55:39.111Z,18.77
2018-11-26T16:00:43.388Z,18.27
2018-11-26T16:05:47.302Z,18.93
2018-11-26T16:10:51.199Z,19.17
2018-11-26T16:15:55.016Z,18.67
2018-11-26T16:20:59.110Z,18.23
2018-11-26T16:26:03.170Z,19.57
2018-11-26T16:31:07.011Z,19.10
2018-11-26T16:36:10.830Z,18.90
2018-11-26T16:41:14.848Z,21.70
2018-11-26T16:46:18.648Z,20.90
2018-11-26T16:51:22.683Z,20.90
2018-11-26T16:56:26.716Z,20.13
2018-11-26T17:01:30.770Z,19.47
2018-11-26T17:06:34.595Z,19.27
2018-11-26T17:11:38.419Z,19.60
2018-11-26T17:16:42.224Z,19.13
2018-11-26T17:21:46.024Z,19.27
2018-11-26T17:26:49.838Z,18.53
2018-11-26T17:31:53.764Z,19.50
2018-11-26T17:36:57.592Z,19.63
2018-11-26T17:42:01.501Z,20.13
2018-11-26T17:47:05.415Z,20.07
2018-11-26T17:52:09.260Z,19.33
2018-11-26T17:57:13.103Z,19.80
2018-11-26T18:02:16.919Z,19.00
2018-11-26T18:07:20.714Z,20.40
2018-11-26T18:12:24.796Z,19.23
2018-11-26T18:17:28.717Z,18.70
2018-11-26T18:22:32.527Z,18.87
2018-11-26T18:27:36.993Z,22.77
2018-11-26T18:32:40.920Z,18.57
2018-11-26T18:37:44.737Z,18.43
2018-11-26T18:42:48.590Z,18.57
2018-11-26T18:47:52.413Z,18.33
2018-11-26T18:52:56.230Z,18.30
2018-11-26T18:58:00.143Z,19.90
2018-11-26T19:03:03.961Z,18.23
2018-11-26T19:08:08.132Z,19.30
2018-11-26T19:13:27.880Z,19.07
2018-11-26T19:18:31.689Z,19.37
2018-11-26T19:23:35.491Z,20.30
2018-11-26T19:28:39.306Z,19.27
2018-11-26T19:33:44.026Z,18.95
2018-11-26T19:38:47.949Z,19.17
2018-11-26T19:43:52.740Z,20.00
2018-11-26T19:49:03.116Z,18.07
2018-11-26T19:54:06.944Z,19.00
2018-11-26T19:59:10.836Z,19.80
2018-11-26T20:04:36.625Z,20.20
2018-11-26T20:09:40.468Z,20.53
2018-11-26T20:14:44.378Z,21.03
2018-11-26T20:19:48.206Z,21.47
2018-11-26T20:24:52.063Z,21.73
2018-11-26T20:29:55.904Z,20.77
2018-11-26T20:34:59.719Z,20.20
2018-11-26T20:40:04.375Z,19.73
2018-11-26T20:45:11.647Z,20.03
2018-11-26T20:50:21.821Z,20.60
2018-11-26T20:55:26.139Z,20.03
2018-11-26T21:00:29.956Z,19.82
2018-11-26T21:05:33.780Z,21.60
2018-11-26T21:10:37.847Z,21.67
2018-11-26T21:15:41.916Z,20.43
2018-11-26T21:20:48.992Z,22.20
2018-11-26T21:25:53.119Z,22.07
2018-11-26T21:30:56.985Z,25.93
2018-11-26T21:36:00.795Z,25.03
2018-11-26T21:41:05.173Z,23.40
2018-11-26T21:46:09.025Z,23.60
2018-11-26T21:51:13.100Z,22.90
2018-11-26T21:56:16.895Z,23.13
2018-11-26T22:01:20.701Z,23.57
2018-11-26T22:06:24.503Z,23.90
2018-11-26T22:11:30.481Z,23.37
2018-11-26T22:16:32.330Z,22.40
2018-11-26T22:21:36.125Z,21.40
2018-11-26T22:26:39.931Z,21.07
2018-11-26T22:31:43.759Z,19.57
2018-11-26T22:36:47.576Z,20.53
2018-11-26T22:41:51.459Z,21.17
2018-11-26T22:46:55.341Z,20.60
2018-11-26T22:51:59.167Z,20.93
2018-11-26T22:57:02.981Z,21.03
2018-11-26T23:02:06.846Z,20.17
2018-11-26T23:07:10.954Z,19.73
2018-11-26T23:12:15.852Z,18.37
2018-11-26T23:17:19.779Z,18.93
2018-11-26T23:22:23.861Z,19.53
2018-11-26T23:27:27.719Z,19.00
2018-11-26T23:32:31.756Z,19.70
2018-11-26T23:37:35.567Z,18.77
2018-11-26T23:42:39.643Z,17.87
2018-11-26T23:47:43.443Z,17.77
2018-11-26T23:52:47.724Z,18.60
2018-11-26T23:57:51.648Z,19.12
